Estación Meteorológica Peña el Pijo (Robertgarden) [ 07/19/24 11:54:32 CEST ]

Fecha Hora Presion(HPa) Temp (°C) Humedad % Rocio (°C) Viento ( m/s) Direccion Lluvia 1Hora(mm) Lluvia 24H(mm) LLuvia Total(mm)
2011-Nov-13 01:01:13 1014.900 10.6 81 7.5         151.25
2011-Nov-13 02:06:19 1014.400 10.6 81 7.5 0.7 N     151.25
2011-Nov-13 03:01:13 1014.600 10.5 81 7.4         151.25
2011-Nov-13 04:01:14 1014.100 10.4 82 7.4         151.25
2011-Nov-13 05:01:12 1014.100 10.2 82 7.2         151.25
2011-Nov-13 06:01:13 1014.100 9.9 83 7.1         151.25
2011-Nov-13 07:01:13 1014.300 9.3 86 7.1         151.25
2011-Nov-13 08:01:13 1014.500 10.4 85 8.0         151.25
2011-Nov-13 09:01:14 1015.000 11.8 80 8.5         151.25
2011-Nov-13 10:01:13 1015.200 12.2 77 8.3         151.25
2011-Nov-13 11:01:16 1015.500 12.0 79 8.5         151.25
2011-Nov-13 12:01:17 1015.200 12.7 75 8.4         151.25
2011-Nov-13 13:01:13 1014.700 13.6 70 8.2         151.25
2011-Nov-13 14:01:21 1014.300 13.9 65 7.4         151.25
2011-Nov-13 15:01:16 1013.900 13.9 67 7.8         151.25
2011-Nov-13 16:01:13 1013.800 15.6 59 7.6         151.25
2011-Nov-13 17:01:14 1014.000 14.3 64 7.6         151.25
2011-Nov-13 18:01:16 1014.300 12.3 69 6.8         151.25
2011-Nov-13 19:01:14 1014.600 10.8 76 6.7         151.25
2011-Nov-13 20:01:18 1014.500 10.9 78 7.2         151.25
2011-Nov-13 21:01:12 1014.100 10.8 76 6.7         151.25
2011-Nov-13 22:01:13 1013.600 10.1 78 6.4         151.25
2011-Nov-13 23:01:17 1013.600 10.2 79 6.7         151.25

Temperatura Máxima:15°    Temperatura Mínima:
Presión Máxima:1015.500 Hpa    Presión Mínima:1013.600 Hpa


Volver